Time;durP1;ratioP1;P1;durP2;ratioP2;P2;SDS_P1;SDS_P2;PMS_P1;PMS_P2;Temp;Humidity;BMP_temperature;BMP_pressure;BME280_temperature;BME280_humidity;BME280_pressure;Samples;Min_cycle;Max_cycle;Signal;HPM_P1;HPM_P2
2023/06/19 00:00:12;;;;;;;12.52;10.18;;;;;;;17.63;100.00;101242.78;5055497;28;20021;-66
2023/06/19 00:02:43;;;;;;;14.25;10.38;;;;;;;17.66;100.00;101237.69;5055684;28;20029;-69
2023/06/19 00:05:09;;;;;;;12.95;10.15;;;;;;;17.65;100.00;101230.59;5056001;28;20036;-66
2023/06/19 00:07:36;;;;;;;12.98;10.90;;;;;;;17.66;100.00;101239.59;5055586;28;20033;-66
2023/06/19 00:10:03;;;;;;;12.18;10.60;;;;;;;17.66;100.00;101245.84;5039058;28;20025;-66
2023/06/19 00:12:28;;;;;;;12.02;10.82;;;;;;;17.68;100.00;101242.88;5034766;28;20026;-66
2023/06/19 00:14:54;;;;;;;12.77;11.57;;;;;;;17.67;100.00;101247.50;5035635;28;20128;-66
2023/06/19 00:17:19;;;;;;;12.50;11.20;;;;;;;17.67;100.00;101250.22;5035265;28;20025;-66
2023/06/19 00:19:44;;;;;;;12.85;11.55;;;;;;;17.68;100.00;101248.31;5035650;28;20033;-66
2023/06/19 00:22:10;;;;;;;14.13;11.40;;;;;;;17.61;100.00;101245.72;5035241;28;20021;-65
2023/06/19 00:24:35;;;;;;;13.52;12.07;;;;;;;17.62;100.00;101252.84;5035375;28;20473;-66
2023/06/19 00:27:02;;;;;;;12.77;11.38;;;;;;;17.62;100.00;101247.38;5035679;28;20036;-66
2023/06/19 00:29:28;;;;;;;12.48;11.13;;;;;;;17.53;100.00;101232.47;5035520;28;20112;-66
2023/06/19 00:31:54;;;;;;;12.52;11.23;;;;;;;17.56;100.00;101243.72;5035125;28;20484;-66
2023/06/19 00:34:19;;;;;;;13.07;11.70;;;;;;;17.56;100.00;101248.31;5034916;28;20033;-66
2023/06/19 00:36:45;;;;;;;14.77;13.07;;;;;;;17.53;100.00;101246.91;5032760;28;20026;-66
2023/06/19 00:39:10;;;;;;;14.32;12.05;;;;;;;17.55;100.00;101250.22;5034539;28;20056;-67
2023/06/19 00:41:37;;;;;;;14.80;13.30;;;;;;;17.60;100.00;101244.88;5035517;28;20029;-66
2023/06/19 00:44:03;;;;;;;15.70;12.50;;;;;;;17.60;100.00;101244.06;5017426;28;20060;-66
2023/06/19 00:46:29;;;;;;;13.88;12.43;;;;;;;17.57;100.00;101244.53;5035198;28;20046;-66
2023/06/19 00:48:54;;;;;;;13.88;12.38;;;;;;;17.52;100.00;101258.03;5034695;28;20244;-66
2023/06/19 00:51:19;;;;;;;13.93;12.43;;;;;;;17.45;100.00;101252.69;5033973;28;20037;-66
2023/06/19 00:53:45;;;;;;;16.65;13.25;;;;;;;17.38;100.00;101235.63;5034933;28;20029;-66
2023/06/19 00:56:12;;;;;;;13.95;12.55;;;;;;;17.49;100.00;101242.16;5017156;28;20033;-66
2023/06/19 00:58:38;;;;;;;16.63;12.73;;;;;;;17.40;100.00;101227.25;5035435;28;20022;-66
2023/06/19 01:01:04;;;;;;;13.15;11.30;;;;;;;17.47;100.00;101255.16;5013366;28;20511;-66
2023/06/19 01:03:29;;;;;;;13.80;12.38;;;;;;;17.43;100.00;101245.81;5032708;28;20573;-65
2023/06/19 01:05:58;;;;;;;15.10;12.55;;;;;;;17.37;100.00;101251.13;5030225;28;20029;-66
2023/06/19 01:08:45;;;;;;;14.18;12.25;;;;;;;17.29;100.00;101251.47;5030636;28;20065;-66
2023/06/19 01:11:14;;;;;;;13.48;11.20;;;;;;;17.21;100.00;101246.34;5033619;28;20045;-66
2023/06/19 01:13:47;;;;;;;12.98;11.70;;;;;;;17.14;100.00;101240.19;5034545;28;20112;-66
2023/06/19 01:16:13;;;;;;;13.90;12.50;;;;;;;17.06;100.00;101241.34;5034524;28;20108;-66
2023/06/19 01:18:40;;;;;;;13.48;11.85;;;;;;;17.07;100.00;101240.28;5047049;28;20025;-66
2023/06/19 01:21:13;;;;;;;13.52;12.10;;;;;;;17.03;100.00;101243.72;5058007;28;20025;-66
2023/06/19 01:23:40;;;;;;;13.43;12.02;;;;;;;16.98;100.00;101240.84;5044217;28;20551;-66
2023/06/19 01:26:06;;;;;;;13.15;11.77;;;;;;;16.95;100.00;101249.44;5033343;28;20060;-65
2023/06/19 01:28:33;;;;;;;13.18;11.77;;;;;;;16.95;100.00;101238.56;5034673;28;20040;-66
2023/06/19 01:31:01;;;;;;;14.55;12.38;;;;;;;16.95;100.00;101238.56;5033423;28;20033;-65
2023/06/19 01:33:31;;;;;;;14.32;12.82;;;;;;;16.95;100.00;101238.56;5034541;28;20025;-66
2023/06/19 01:35:58;;;;;;;13.52;12.13;;;;;;;16.94;100.00;101239.66;5034768;28;20029;-66
2023/06/19 01:38:26;;;;;;;13.77;12.38;;;;;;;16.90;100.00;101231.13;5033293;28;20431;-66
2023/06/19 01:40:56;;;;;;;15.48;12.45;;;;;;;16.87;100.00;101234.31;5039224;28;20025;-66
2023/06/19 01:43:23;;;;;;;14.32;12.85;;;;;;;16.84;100.00;101229.31;5058211;28;20140;-66
2023/06/19 01:45:49;;;;;;;14.30;12.38;;;;;;;16.82;100.00;101226.84;5057158;28;20110;-66
2023/06/19 01:48:15;;;;;;;12.88;11.57;;;;;;;16.76;100.00;101233.19;5056363;28;20179;-66
2023/06/19 01:50:45;;;;;;;13.77;12.30;;;;;;;16.71;100.00;101218.59;5040165;28;20028;-66
2023/06/19 01:53:10;;;;;;;17.75;11.70;;;;;;;16.74;100.00;101229.00;5056265;28;20021;-66
2023/06/19 01:55:36;;;;;;;15.43;12.55;;;;;;;16.71;100.00;101222.16;5053398;28;20548;-65
2023/06/19 01:58:01;;;;;;;13.95;12.45;;;;;;;16.68;100.00;101228.88;5058071;28;20029;-66
2023/06/19 02:00:27;;;;;;;16.80;13.73;;;;;;;16.70;100.00;101222.38;5058093;28;20075;-65
2023/06/19 02:02:52;;;;;;;14.48;12.85;;;;;;;16.71;100.00;101219.44;5056550;28;20100;-66
2023/06/19 02:05:18;;;;;;;12.25;11.02;;;;;;;16.63;100.00;101201.56;5056375;28;20029;-66
2023/06/19 02:07:43;;;;;;;14.40;12.85;;;;;;;16.65;100.00;101210.34;5057962;28;20044;-66
2023/06/19 02:10:09;;;;;;;14.18;12.77;;;;;;;16.64;100.00;101211.38;5056728;28;20735;-66
2023/06/19 02:12:35;;;;;;;14.02;11.70;;;;;;;16.61;100.00;101209.09;5040000;28;20052;-65
2023/06/19 02:15:00;;;;;;;13.65;12.35;;;;;;;16.56;100.00;101219.84;5056300;28;20407;-66
2023/06/19 02:17:26;;;;;;;13.50;12.10;;;;;;;16.52;100.00;101218.63;5056355;28;20051;-65
2023/06/19 02:19:51;;;;;;;14.48;13.07;;;;;;;16.48;100.00;101211.16;5058102;28;20021;-65
2023/06/19 02:22:18;;;;;;;14.75;13.25;;;;;;;16.33;100.00;101189.84;5056342;28;20024;-66
2023/06/19 02:24:44;;;;;;;16.02;14.32;;;;;;;16.36;100.00;101206.50;5056460;28;20028;-66
2023/06/19 02:27:10;;;;;;;15.45;13.40;;;;;;;16.39;100.00;101203.34;5056827;28;20397;-66
2023/06/19 02:29:35;;;;;;;15.55;14.00;;;;;;;16.45;100.00;101213.28;5056536;28;20111;-66
2023/06/19 02:32:01;;;;;;;15.40;13.63;;;;;;;16.43;100.00;101201.81;5057816;28;20031;-65
2023/06/19 02:34:27;;;;;;;14.07;12.60;;;;;;;16.50;100.00;101204.47;5057414;28;20415;-66
2023/06/19 02:36:52;;;;;;;14.55;12.95;;;;;;;16.55;100.00;101201.03;5057810;28;20033;-66
2023/06/19 02:39:18;;;;;;;13.55;12.15;;;;;;;16.58;100.00;101206.84;5034165;28;20091;-66
2023/06/19 02:41:45;;;;;;;15.80;12.95;;;;;;;16.50;100.00;101185.44;5035218;28;20029;-66
2023/06/19 02:44:14;;;;;;;13.38;11.98;;;;;;;16.64;100.00;101202.38;5040522;28;20048;-65
2023/06/19 02:46:40;;;;;;;14.07;12.20;;;;;;;16.60;100.00;101209.34;5052625;28;20466;-66
2023/06/19 02:49:05;;;;;;;13.05;11.63;;;;;;;16.55;100.00;101212.72;5052924;28;20033;-66
2023/06/19 02:51:31;;;;;;;13.65;12.23;;;;;;;16.51;100.00;101208.00;5052208;28;20093;-66
2023/06/19 02:53:57;;;;;;;13.35;11.95;;;;;;;16.55;100.00;101196.44;5035939;28;20038;-66
2023/06/19 02:56:24;;;;;;;13.07;11.73;;;;;;;16.72;100.00;101207.53;5036900;28;20033;-66
2023/06/19 02:58:50;;;;;;;13.30;11.88;;;;;;;17.22;100.00;101199.06;5036646;28;20029;-66
2023/06/19 03:01:15;;;;;;;14.82;12.32;;;;;;;17.75;100.00;101205.50;5036655;28;20113;-66
2023/06/19 03:03:41;;;;;;;12.45;11.15;;;;;;;17.79;100.00;101198.56;5035570;28;20384;-66
2023/06/19 03:06:08;;;;;;;12.98;11.77;;;;;;;17.62;100.00;101198.41;5036103;28;20071;-66
2023/06/19 03:08:34;;;;;;;13.23;11.60;;;;;;;18.00;100.00;101167.16;5036708;28;20022;-67
2023/06/19 03:10:59;;;;;;;13.02;11.60;;;;;;;18.85;100.00;101196.41;5043026;28;20491;-66
2023/06/19 03:13:25;;;;;;;12.15;10.95;;;;;;;19.41;97.26;101182.91;5054500;28;20040;-66
2023/06/19 03:15:50;;;;;;;12.80;11.43;;;;;;;19.53;96.42;101185.53;5036362;28;20072;-66
2023/06/19 03:18:16;;;;;;;13.27;11.98;;;;;;;18.76;100.00;101171.44;5040716;28;20602;-66
2023/06/19 03:20:41;;;;;;;12.52;11.27;;;;;;;18.30;100.00;101184.13;5055578;28;20031;-66
2023/06/19 03:23:07;;;;;;;12.57;11.27;;;;;;;18.13;100.00;101190.56;5051566;28;20060;-66
2023/06/19 03:25:34;;;;;;;12.18;10.95;;;;;;;17.99;100.00;101192.75;5035659;28;20026;-66
2023/06/19 03:28:01;;;;;;;12.20;11.00;;;;;;;17.78;100.00;101199.59;5018445;28;20040;-66
2023/06/19 03:30:27;;;;;;;12.27;10.45;;;;;;;17.70;100.00;101189.88;5018891;28;20038;-66
2023/06/19 03:32:52;;;;;;;12.40;11.20;;;;;;;17.53;100.00;101180.78;5048589;28;20092;-66
2023/06/19 03:35:18;;;;;;;12.02;10.82;;;;;;;17.24;100.00;101172.44;5054542;28;20116;-66
2023/06/19 03:37:43;;;;;;;13.68;10.98;;;;;;;17.30;100.00;101184.28;5050488;28;20131;-66
2023/06/19 03:40:13;;;;;;;12.15;10.90;;;;;;;17.87;100.00;101194.63;5053551;28;20025;-66
2023/06/19 03:42:39;;;;;;;13.20;11.48;;;;;;;18.91;100.00;101202.78;5055593;28;20040;-65
2023/06/19 03:45:05;;;;;;;12.07;10.88;;;;;;;19.32;100.00;101173.47;5039716;28;20053;-65
2023/06/19 03:47:31;;;;;;;11.45;10.35;;;;;;;19.62;99.29;101190.31;5034983;28;20048;-66
2023/06/19 03:49:56;;;;;;;11.13;9.93;;;;;;;19.60;99.16;101199.84;5035380;28;20029;-66
2023/06/19 03:52:21;;;;;;;11.25;10.15;;;;;;;19.18;100.00;101200.25;5035993;28;20088;-66
2023/06/19 03:54:47;;;;;;;11.85;10.65;;;;;;;19.14;100.00;101199.94;5035776;28;20022;-66
2023/06/19 03:57:13;;;;;;;12.45;10.50;;;;;;;18.92;100.00;101202.53;5034491;28;20092;-66
2023/06/19 03:59:38;;;;;;;12.07;10.88;;;;;;;18.82;100.00;101198.81;5035995;28;20104;-65
2023/06/19 04:02:04;;;;;;;12.00;10.88;;;;;;;18.45;100.00;101194.53;5017938;28;20074;-66
2023/06/19 04:04:29;;;;;;;12.27;11.00;;;;;;;18.67;100.00;101189.22;5055618;28;20033;-66
2023/06/19 04:06:54;;;;;;;11.80;10.60;;;;;;;19.18;100.00;101186.63;5037886;28;20072;-66
2023/06/19 04:09:20;;;;;;;11.48;10.40;;;;;;;19.10;100.00;101187.00;5057663;28;20094;-66
2023/06/19 04:11:46;;;;;;;11.43;10.32;;;;;;;19.55;100.00;101184.22;5055016;28;20098;-66
2023/06/19 04:14:11;;;;;;;12.38;11.07;;;;;;;20.63;95.00;101178.31;5053660;28;20028;-66
2023/06/19 04:16:37;;;;;;;14.38;11.25;;;;;;;21.38;90.04;101170.25;5047400;28;20025;-66
2023/06/19 04:19:03;;;;;;;11.57;10.20;;;;;;;21.88;87.68;101183.44;5034127;28;20168;-66
2023/06/19 04:21:28;;;;;;;11.70;10.50;;;;;;;22.61;84.34;101168.97;5040810;28;20037;-65
2023/06/19 04:23:53;;;;;;;11.32;10.23;;;;;;;23.07;82.13;101182.78;5036436;28;20102;-66
2023/06/19 04:26:21;;;;;;;11.52;10.25;;;;;;;23.12;81.11;101174.56;5054429;28;20032;-66
2023/06/19 04:28:46;;;;;;;11.75;10.50;;;;;;;22.42;83.65;101177.72;5055389;28;20103;-65
2023/06/19 04:31:12;;;;;;;11.55;10.35;;;;;;;20.97;91.23;101178.09;5053628;28;20037;-65
2023/06/19 04:33:37;;;;;;;11.60;10.25;;;;;;;21.23;91.10;101179.97;5049787;28;20479;-65
2023/06/19 04:36:03;;;;;;;11.90;10.55;;;;;;;21.86;87.53;101174.69;5034779;28;20034;-65
2023/06/19 04:38:28;;;;;;;11.90;10.70;;;;;;;22.11;86.20;101170.41;5050155;28;20091;-64
2023/06/19 04:40:54;;;;;;;11.60;10.40;;;;;;;22.41;84.21;101172.47;5035439;28;20037;-66
2023/06/19 04:43:19;;;;;;;11.13;10.13;;;;;;;22.23;85.59;101163.66;5041680;28;20088;-65
2023/06/19 04:45:45;;;;;;;11.05;9.95;;;;;;;22.71;83.95;101166.25;5049325;28;20049;-66
2023/06/19 04:48:11;;;;;;;11.45;9.82;;;;;;;23.19;81.85;101166.88;5056372;28;20507;-65
2023/06/19 04:50:37;;;;;;;10.73;9.73;;;;;;;23.68;79.71;101169.06;5033885;28;20029;-65
2023/06/19 04:53:02;;;;;;;9.73;8.82;;;;;;;23.58;80.14;101166.31;5036113;28;20037;-65
2023/06/19 04:55:28;;;;;;;10.02;9.07;;;;;;;23.42;80.96;101171.81;5041265;28;20033;-66
2023/06/19 04:57:53;;;;;;;10.50;9.32;;;;;;;23.31;81.47;101169.34;5054658;28;20517;-65
2023/06/19 05:00:19;;;;;;;10.50;9.07;;;;;;;23.76;80.34;101171.22;5042338;28;20492;-65
2023/06/19 05:02:47;;;;;;;9.95;8.88;;;;;;;23.95;79.90;101171.47;5038600;28;20025;-64
2023/06/19 05:05:13;;;;;;;10.68;8.77;;;;;;;23.92;79.73;101164.59;5038827;28;20040;-65
2023/06/19 05:07:39;;;;;;;9.98;8.98;;;;;;;23.92;80.11;101166.53;5038682;28;20041;-65
2023/06/19 05:10:05;;;;;;;9.50;8.60;;;;;;;24.04;79.95;101174.44;5037382;28;20056;-66
2023/06/19 05:12:30;;;;;;;8.95;8.05;;;;;;;23.67;80.96;101153.63;5038346;28;20040;-66
2023/06/19 05:14:56;;;;;;;8.23;7.43;;;;;;;24.13;80.78;101165.34;5037159;28;20030;-66
2023/06/19 05:17:21;;;;;;;8.57;7.78;;;;;;;24.09;80.37;101171.69;5038699;28;20037;-66
2023/06/19 05:19:47;;;;;;;9.25;7.93;;;;;;;23.72;81.63;101167.41;5036569;28;20025;-66
2023/06/19 05:22:13;;;;;;;8.93;8.02;;;;;;;23.57;82.52;101168.22;5035241;28;20040;-65
2023/06/19 05:24:38;;;;;;;8.60;7.82;;;;;;;23.64;82.10;101154.19;5035246;28;20021;-65
2023/06/19 05:27:04;;;;;;;8.77;7.97;;;;;;;23.18;84.22;101163.31;5035374;28;20025;-66
2023/06/19 05:29:30;;;;;;;8.27;7.40;;;;;;;23.18;84.54;101165.25;5035361;28;20021;-66
2023/06/19 05:31:56;;;;;;;8.35;7.55;;;;;;;23.15;84.78;101174.03;5025948;28;20057;-66
2023/06/19 05:34:22;;;;;;;8.15;7.45;;;;;;;23.12;85.29;101164.41;5052138;28;20827;-66
2023/06/19 05:36:48;;;;;;;9.43;8.23;;;;;;;23.45;84.03;101174.00;5035969;28;20051;-66
2023/06/19 05:39:14;;;;;;;8.65;7.85;;;;;;;23.02;85.49;101171.81;5053448;28;20064;-66
2023/06/19 05:41:40;;;;;;;8.70;7.80;;;;;;;22.96;85.94;101165.50;5053941;28;20032;-66
2023/06/19 05:44:05;;;;;;;9.32;8.32;;;;;;;23.03;86.31;101168.78;5053892;28;20033;-66
2023/06/19 05:46:30;;;;;;;9.52;8.63;;;;;;;23.17;85.71;101171.81;5052598;28;20161;-65
2023/06/19 05:48:56;;;;;;;10.30;7.75;;;;;;;22.92;86.98;101178.91;5055131;28;20055;-66
2023/06/19 05:51:22;;;;;;;8.70;7.80;;;;;;;23.15;86.17;101176.78;5055473;28;20032;-66
2023/06/19 05:53:49;;;;;;;9.23;7.90;;;;;;;23.37;85.38;101180.03;5053769;28;20028;-66
2023/06/19 05:56:15;;;;;;;8.35;7.18;;;;;;;23.20;85.18;101155.63;5053407;28;20028;-65
2023/06/19 05:58:41;;;;;;;8.55;7.65;;;;;;;23.43;84.76;101176.19;5053241;28;20108;-65
2023/06/19 06:01:07;;;;;;;8.15;7.20;;;;;;;23.44;84.48;101172.38;5054187;28;20036;-66
2023/06/19 06:03:33;;;;;;;9.00;6.90;;;;;;;23.71;83.42;101176.75;5041457;28;20136;-67
2023/06/19 06:06:02;;;;;;;8.75;6.80;;;;;;;23.93;82.62;101179.16;5051393;28;20060;-66
2023/06/19 06:08:31;;;;;;;7.32;6.63;;;;;;;24.07;81.95;101179.38;5052569;28;20137;-65
2023/06/19 06:10:56;;;;;;;6.80;6.20;;;;;;;23.59;82.38;101170.69;5057948;28;20037;-66
2023/06/19 06:13:22;;;;;;;8.68;6.38;;;;;;;24.03;81.21;101176.38;5056639;28;20033;-66
2023/06/19 06:15:47;;;;;;;6.90;6.20;;;;;;;24.20;79.98;101176.03;5055272;28;20024;-65
2023/06/19 06:18:14;;;;;;;6.63;5.95;;;;;;;24.14;78.54;101094.69;5056865;28;20039;-66
2023/06/19 06:20:39;;;;;;;11.90;6.10;;;;;;;24.83;76.99;101176.28;5046432;28;20037;-65
2023/06/19 06:23:05;;;;;;;6.78;6.07;;;;;;;24.82;76.67;101182.06;5035967;28;20095;-66
2023/06/19 06:25:30;;;;;;;6.80;5.97;;;;;;;24.64;76.77;101189.06;5038340;28;20029;-66
2023/06/19 06:27:56;;;;;;;6.97;6.28;;;;;;;24.28;77.68;101189.22;5037493;28;20534;-66
2023/06/19 06:30:22;;;;;;;8.48;6.55;;;;;;;24.13;78.61;101195.56;5036049;28;20504;-66
2023/06/19 06:32:48;;;;;;;8.02;6.50;;;;;;;24.59;77.09;101186.31;5054949;28;20556;-66
2023/06/19 06:35:13;;;;;;;6.95;6.35;;;;;;;24.39;77.30;101193.53;5057063;28;20028;-66
2023/06/19 06:37:39;;;;;;;7.00;5.95;;;;;;;24.33;77.97;101191.91;5039486;28;20033;-66
2023/06/19 06:40:09;;;;;;;8.63;6.32;;;;;;;24.78;76.17;101194.75;5057127;28;20430;-65
2023/06/19 06:42:35;;;;;;;6.60;5.90;;;;;;;24.59;76.17;101186.31;5059640;28;20037;-66
2023/06/19 06:45:00;;;;;;;6.22;5.70;;;;;;;24.54;76.53;101187.19;5058521;28;20546;-65
2023/06/19 06:47:26;;;;;;;6.63;6.03;;;;;;;24.70;75.50;101198.09;5039740;28;20264;-66
2023/06/19 06:49:51;;;;;;;6.82;6.22;;;;;;;24.14;76.92;101191.75;5056288;28;20112;-65
2023/06/19 06:52:17;;;;;;;6.22;5.63;;;;;;;24.12;77.69;101204.13;5055903;28;20070;-66
2023/06/19 06:54:42;;;;;;;6.93;6.22;;;;;;;24.30;77.64;101208.16;5057825;28;20029;-66
2023/06/19 06:57:08;;;;;;;8.75;6.43;;;;;;;24.45;76.89;101212.81;5057004;28;20039;-66
2023/06/19 06:59:33;;;;;;;7.43;6.63;;;;;;;24.45;77.34;101212.81;5056861;28;20402;-66
2023/06/19 07:01:59;;;;;;;8.20;6.13;;;;;;;24.72;76.08;101207.72;5057407;28;20430;-66
2023/06/19 07:04:25;;;;;;;7.53;6.25;;;;;;;24.89;75.41;101212.03;5056583;28;20091;-65
2023/06/19 07:06:50;;;;;;;7.15;6.55;;;;;;;24.45;76.46;101208.13;5057180;28;20044;-66
2023/06/19 07:09:16;;;;;;;7.85;7.05;;;;;;;24.90;74.99;101211.75;5057192;28;20033;-66
2023/06/19 07:11:42;;;;;;;10.27;6.95;;;;;;;24.95;74.32;101211.69;5055674;28;20031;-66
2023/06/19 07:14:07;;;;;;;7.75;6.60;;;;;;;24.60;74.74;101204.47;5040522;28;20037;-66
2023/06/19 07:16:33;;;;;;;7.13;6.47;;;;;;;24.30;76.47;101205.41;5056617;28;20119;-66
2023/06/19 07:18:58;;;;;;;8.25;7.18;;;;;;;24.47;76.00;101205.09;5052642;28;20112;-65
2023/06/19 07:21:24;;;;;;;7.50;6.78;;;;;;;24.46;75.76;101198.78;5046330;28;20025;-65
2023/06/19 07:23:49;;;;;;;10.68;6.80;;;;;;;24.70;75.26;101207.19;5038592;28;20056;-66
2023/06/19 07:26:15;;;;;;;6.90;6.20;;;;;;;25.35;72.48;101203.44;5038435;28;20073;-66
2023/06/19 07:28:41;;;;;;;7.55;6.85;;;;;;;25.59;70.71;101200.75;5036942;28;20053;-66
2023/06/19 07:31:07;;;;;;;7.18;6.53;;;;;;;25.66;70.17;101196.56;5036380;28;20032;-66
2023/06/19 07:33:33;;;;;;;7.35;6.68;;;;;;;25.13;72.58;101212.97;5037714;28;20022;-66
2023/06/19 07:35:58;;;;;;;7.60;6.70;;;;;;;25.50;71.26;101206.06;5020011;28;20502;-66
2023/06/19 07:38:24;;;;;;;7.43;6.65;;;;;;;25.18;71.29;101201.94;5036121;28;20449;-66
2023/06/19 07:40:50;;;;;;;7.68;6.97;;;;;;;24.89;72.37;101212.03;5034629;28;20431;-66
2023/06/19 07:43:17;;;;;;;9.77;7.05;;;;;;;24.72;73.65;101210.47;5034969;28;20034;-66
2023/06/19 07:45:42;;;;;;;7.85;6.95;;;;;;;24.96;72.92;101185.81;5034920;28;20061;-66
2023/06/19 07:48:08;;;;;;;7.75;6.93;;;;;;;25.24;72.06;101216.50;5036182;28;20144;-66
2023/06/19 07:50:33;;;;;;;7.90;7.10;;;;;;;25.33;71.41;101212.00;5036972;28;20036;-66
2023/06/19 07:52:58;;;;;;;8.35;6.82;;;;;;;25.10;72.10;101197.03;5046242;28;20514;-66
2023/06/19 07:55:24;;;;;;;7.45;6.70;;;;;;;25.31;71.51;101212.28;5056515;28;20100;-66
2023/06/19 07:57:49;;;;;;;7.78;7.05;;;;;;;25.45;71.37;101214.38;5055301;28;20033;-66
2023/06/19 08:00:15;;;;;;;7.57;6.88;;;;;;;25.55;71.02;101217.03;5054988;28;20404;-66
2023/06/19 08:02:41;;;;;;;8.40;7.60;;;;;;;25.24;71.76;101222.00;5055609;28;20039;-66
2023/06/19 08:05:08;;;;;;;8.23;7.43;;;;;;;25.20;71.75;101227.25;5055977;28;20621;-65
2023/06/19 08:07:34;;;;;;;8.38;7.68;;;;;;;25.40;71.39;101217.19;5056474;28;20037;-66
2023/06/19 08:10:00;;;;;;;8.32;7.55;;;;;;;25.24;72.11;101220.06;5055768;28;20088;-66
2023/06/19 08:12:25;;;;;;;8.05;6.93;;;;;;;25.68;71.16;101221.06;5056483;28;20029;-66
2023/06/19 08:14:51;;;;;;;7.47;6.82;;;;;;;26.01;70.01;101230.38;5055074;28;20043;-65
2023/06/19 08:17:16;;;;;;;8.32;7.25;;;;;;;26.20;69.33;101231.28;5056215;28;20032;-66
2023/06/19 08:19:42;;;;;;;7.22;6.63;;;;;;;25.97;68.98;101232.91;5047884;28;20105;-66
2023/06/19 08:22:08;;;;;;;8.25;7.38;;;;;;;26.05;68.68;101234.19;5034114;28;20373;-66
2023/06/19 08:24:36;;;;;;;8.65;7.38;;;;;;;25.92;68.93;101232.97;5033276;28;20155;-66
2023/06/19 08:27:01;;;;;;;9.68;7.53;;;;;;;25.77;69.31;101225.66;5035534;28;20087;-66
2023/06/19 08:29:27;;;;;;;7.95;7.15;;;;;;;25.76;69.55;101226.78;5038021;28;20029;-66
2023/06/19 08:31:52;;;;;;;7.55;6.50;;;;;;;25.86;69.31;101236.06;5018526;28;20029;-66
2023/06/19 08:34:18;;;;;;;8.05;6.72;;;;;;;25.84;69.59;101222.56;5036337;28;20030;-66
2023/06/19 08:36:44;;;;;;;7.72;6.90;;;;;;;25.88;69.82;101231.09;5037535;28;20297;-65
2023/06/19 08:39:09;;;;;;;7.97;7.18;;;;;;;25.95;69.49;101231.56;5020198;28;20044;-66
2023/06/19 08:41:37;;;;;;;7.28;6.65;;;;;;;25.86;69.73;101223.13;5038220;28;20052;-66
2023/06/19 08:44:03;;;;;;;8.77;7.10;;;;;;;25.86;69.67;101242.41;5037119;28;20104;-66
2023/06/19 08:46:29;;;;;;;8.43;7.10;;;;;;;25.91;70.25;101236.84;5018770;28;20057;-66
2023/06/19 08:48:55;;;;;;;7.55;6.85;;;;;;;25.91;70.57;101233.25;5037835;28;20508;-66
2023/06/19 08:51:21;;;;;;;7.32;6.72;;;;;;;26.04;70.40;101235.31;5035876;28;20087;-66
2023/06/19 08:53:51;;;;;;;7.95;7.22;;;;;;;25.94;70.02;101218.91;5038064;28;20037;-66
2023/06/19 08:56:16;;;;;;;8.25;7.55;;;;;;;25.99;70.43;101229.84;5036568;28;20022;-65
2023/06/19 08:58:42;;;;;;;9.20;7.55;;;;;;;26.04;70.83;101237.25;5031553;28;20427;-65
2023/06/19 09:01:08;;;;;;;8.02;7.22;;;;;;;25.99;70.82;101227.09;5035763;28;20060;-65
2023/06/19 09:03:34;;;;;;;8.70;7.90;;;;;;;26.00;70.78;101234.28;5036755;28;20025;-66
2023/06/19 09:06:03;;;;;;;9.80;7.82;;;;;;;25.98;70.97;101240.06;5036543;28;20034;-66
2023/06/19 09:08:30;;;;;;;8.52;7.72;;;;;;;26.03;71.18;101244.72;5017979;28;20038;-66
2023/06/19 09:11:04;;;;;;;9.40;8.07;;;;;;;26.14;70.49;101235.22;5034750;28;20026;-66
2023/06/19 09:13:31;;;;;;;9.38;8.48;;;;;;;26.31;70.35;101231.97;5034768;28;20033;-65
2023/06/19 09:16:02;;;;;;;9.43;8.52;;;;;;;26.63;69.59;101238.78;5036320;28;20100;-66
2023/06/19 09:18:43;;;;;;;8.70;8.00;;;;;;;26.73;69.50;101229.53;5046870;28;20079;-66
2023/06/19 09:21:18;;;;;;;10.10;8.60;;;;;;;26.89;67.93;101233.72;5058374;28;20167;-66
2023/06/19 09:23:45;;;;;;;9.48;8.50;;;;;;;26.74;68.21;101228.41;5055716;28;20107;-65
2023/06/19 09:26:14;;;;;;;8.70;7.90;;;;;;;26.95;67.69;101224.22;5058091;28;20483;-65
2023/06/19 09:28:42;;;;;;;12.20;8.32;;;;;;;27.20;66.82;101219.47;5051660;28;20039;-65
2023/06/19 09:31:08;;;;;;;8.70;7.97;;;;;;;27.28;65.45;101204.97;5038183;28;20029;-65
2023/06/19 09:33:34;;;;;;;8.55;7.65;;;;;;;27.28;65.66;101204.97;5046833;28;20040;-65
2023/06/19 09:36:02;;;;;;;8.27;7.47;;;;;;;27.36;64.34;101212.56;5033996;28;20044;-66
2023/06/19 09:38:33;;;;;;;8.65;7.70;;;;;;;27.23;63.55;101218.88;5054938;28;20090;-66
2023/06/19 09:41:01;;;;;;;8.40;7.50;;;;;;;26.96;64.46;101219.56;5061572;28;20075;-66
2023/06/19 09:43:38;;;;;;;8.65;7.47;;;;;;;27.36;63.02;101216.16;5060524;28;20029;-66
2023/06/19 09:46:05;;;;;;;11.35;8.40;;;;;;;27.57;61.93;101213.03;5061071;28;20456;-66
2023/06/19 09:48:34;;;;;;;12.95;7.55;;;;;;;27.81;61.66;101212.88;5060977;28;20101;-66
2023/06/19 09:51:07;;;;;;;10.20;6.90;;;;;;;28.03;61.04;101212.19;5042980;28;20029;-66
2023/06/19 09:53:53;;;;;;;9.77;7.03;;;;;;;28.23;60.43;101208.19;5060935;28;20025;-66
2023/06/19 09:56:21;;;;;;;8.35;7.15;;;;;;;27.89;60.17;101211.38;5061613;28;20033;-66
2023/06/19 09:58:49;;;;;;;10.35;7.63;;;;;;;27.37;61.13;101214.19;5060695;28;20054;-66
2023/06/19 10:01:18;;;;;;;8.23;7.43;;;;;;;27.66;60.77;101211.22;5068195;28;20143;-65
2023/06/19 10:03:44;;;;;;;9.88;7.13;;;;;;;27.91;60.07;101204.41;5069110;28;20044;-66
2023/06/19 10:06:15;;;;;;;14.30;7.60;;;;;;;28.06;59.54;101204.09;5075118;28;20043;-66
2023/06/19 10:08:43;;;;;;;9.73;7.50;;;;;;;28.15;59.66;101206.16;5065440;28;20418;-66
2023/06/19 10:11:09;;;;;;;9.70;7.13;;;;;;;28.21;58.66;101200.22;5038609;28;20040;-66
2023/06/19 10:13:41;;;;;;;7.65;6.95;;;;;;;28.33;58.67;101200.50;5038738;28;20091;-66
2023/06/19 10:16:20;;;;;;;8.68;7.78;;;;;;;28.38;59.14;101205.13;5055003;28;20124;-66
2023/06/19 10:18:47;;;;;;;8.43;7.55;;;;;;;28.50;59.35;101199.88;5034091;28;20032;-66
2023/06/19 10:21:21;;;;;;;8.05;7.25;;;;;;;28.63;59.46;101205.72;5050913;28;20242;-66
2023/06/19 10:23:57;;;;;;;8.45;7.65;;;;;;;28.59;59.26;101210.25;5034213;28;20033;-67
2023/06/19 10:26:31;;;;;;;8.07;7.38;;;;;;;28.37;60.03;101202.66;5048749;28;20083;-66
2023/06/19 10:28:56;;;;;;;9.35;8.45;;;;;;;28.33;60.60;101203.25;5032977;28;20021;-66
2023/06/19 10:31:22;;;;;;;8.38;7.57;;;;;;;28.41;60.68;101203.69;5032283;28;20048;-66
2023/06/19 10:33:48;;;;;;;11.25;7.95;;;;;;;28.59;59.66;101199.16;5031996;28;20056;-66
2023/06/19 10:36:18;;;;;;;9.27;8.25;;;;;;;28.56;59.10;101187.56;5035800;28;20033;-65
2023/06/19 10:38:47;;;;;;;8.85;7.88;;;;;;;28.61;59.10;101202.44;5039253;28;20079;-65
2023/06/19 10:41:17;;;;;;;8.95;8.02;;;;;;;28.64;59.21;101202.63;5049707;28;20104;-65
2023/06/19 10:43:53;;;;;;;8.85;8.05;;;;;;;28.63;59.13;101212.06;5054905;28;20039;-65
2023/06/19 10:46:18;;;;;;;9.02;8.13;;;;;;;28.71;59.25;101196.66;5038935;28;20054;-64
2023/06/19 10:48:45;;;;;;;9.30;8.18;;;;;;;29.00;58.32;101194.31;5037012;28;20044;-66
2023/06/19 10:51:11;;;;;;;11.60;8.20;;;;;;;29.02;57.65;101197.63;5042705;28;20078;-65
2023/06/19 10:53:36;;;;;;;9.70;8.38;;;;;;;29.24;57.86;101199.56;5038272;28;20051;-65
2023/06/19 10:56:02;;;;;;;9.85;8.10;;;;;;;29.54;57.17;101186.06;5047512;28;20031;-65
2023/06/19 10:58:28;;;;;;;8.73;7.65;;;;;;;29.81;56.36;101187.84;5033432;28;20116;-65
2023/06/19 11:00:55;;;;;;;9.93;8.40;;;;;;;29.65;56.15;101172.75;5033566;28;20025;-66
2023/06/19 11:03:21;;;;;;;10.40;8.43;;;;;;;29.54;55.63;101196.31;5036679;28;20033;-66
2023/06/19 11:05:48;;;;;;;9.88;8.40;;;;;;;29.57;55.56;101204.00;5040817;28;20507;-65
2023/06/19 11:08:19;;;;;;;17.45;9.02;;;;;;;29.56;55.84;101192.09;5035455;28;20041;-66
2023/06/19 11:10:44;;;;;;;9.40;8.50;;;;;;;30.05;55.17;101192.19;5033841;28;20400;-66